Time;durP1;ratioP1;P1;durP2;ratioP2;P2;SDS_P1;SDS_P2;PMS_P1;PMS_P2;Temp;Humidity;BMP_temperature;BMP_pressure;BME280_temperature;BME280_humidity;BME280_pressure;Samples;Min_cycle;Max_cycle;Signal;HPM_P1;HPM_P2
2022/12/31 00:02:19;;;;;;;26.33;16.97;;;;;;;0.74;92.73;96376.95;1840454;78;21133;-68
2022/12/31 00:04:46;;;;;;;29.63;18.27;;;;;;;0.69;92.38;96386.31;1840758;78;20987;-68
2022/12/31 00:07:12;;;;;;;26.97;17.90;;;;;;;0.66;92.62;96390.13;1840778;78;21524;-68
2022/12/31 00:09:39;;;;;;;27.00;16.43;;;;;;;0.66;92.65;96399.63;1840855;78;20975;-68
2022/12/31 00:12:06;;;;;;;31.23;18.37;;;;;;;0.65;92.40;96396.13;1840799;78;21047;-68
2022/12/31 00:14:32;;;;;;;25.30;15.97;;;;;;;0.64;92.34;96395.67;1840684;78;21022;-68
2022/12/31 00:16:59;;;;;;;32.07;18.93;;;;;;;0.62;92.25;96398.20;1840853;78;21011;-68
2022/12/31 00:19:26;;;;;;;25.67;15.70;;;;;;;0.54;92.27;96405.30;1840969;78;21509;-68
2022/12/31 00:21:52;;;;;;;25.27;16.40;;;;;;;0.52;92.52;96407.83;1840552;78;21011;-68
2022/12/31 00:24:19;;;;;;;30.77;17.77;;;;;;;0.50;92.40;96408.19;1840800;78;21000;-68
2022/12/31 00:26:46;;;;;;;23.80;13.30;;;;;;;0.47;92.30;96410.69;1840709;78;20971;-68
2022/12/31 00:29:12;;;;;;;28.97;18.30;;;;;;;0.37;91.92;96408.20;1840700;78;21501;-68
2022/12/31 00:31:39;;;;;;;34.57;20.13;;;;;;;0.33;92.52;96414.56;1840815;78;20952;-68
2022/12/31 00:34:06;;;;;;;34.23;19.87;;;;;;;0.35;92.90;96417.67;1832742;78;21490;-68
2022/12/31 00:36:38;;;;;;;29.87;17.50;;;;;;;0.33;92.53;96413.27;1831475;78;20993;-68
2022/12/31 00:39:07;;;;;;;27.23;16.13;;;;;;;0.36;92.81;96408.16;1831736;78;21422;-68
2022/12/31 00:41:34;;;;;;;29.87;18.47;;;;;;;0.39;92.52;96414.33;1831775;78;21016;-68
2022/12/31 00:44:01;;;;;;;33.50;19.23;;;;;;;0.43;92.66;96419.23;1831759;78;20995;-68
2022/12/31 00:46:27;;;;;;;33.13;18.73;;;;;;;0.49;93.09;96418.55;1831769;78;21031;-68
2022/12/31 00:48:54;;;;;;;29.30;16.70;;;;;;;0.51;92.91;96414.30;1831611;78;21035;-68
2022/12/31 00:51:26;;;;;;;24.03;14.80;;;;;;;0.54;92.95;96415.69;1831587;78;21008;-68
2022/12/31 00:53:53;;;;;;;29.23;18.80;;;;;;;0.49;92.31;96434.13;1831701;78;21011;-69
2022/12/31 00:56:23;;;;;;;22.63;14.87;;;;;;;0.49;92.51;96424.61;1831555;78;21000;-68
2022/12/31 00:58:50;;;;;;;27.00;15.40;;;;;;;0.46;92.28;96426.23;1831678;78;20944;-68
2022/12/31 01:01:27;;;;;;;30.00;18.20;;;;;;;0.42;92.46;96435.20;1831579;78;21024;-68
2022/12/31 01:03:58;;;;;;;24.47;14.33;;;;;;;0.40;92.69;96439.48;1831655;78;21445;-68
2022/12/31 01:06:25;;;;;;;22.23;14.10;;;;;;;0.42;92.77;96438.22;1831543;78;21330;-68
2022/12/31 01:08:54;;;;;;;30.27;19.60;;;;;;;0.36;92.31;96438.89;1831585;78;21517;-68
2022/12/31 01:11:22;;;;;;;32.97;20.50;;;;;;;0.38;92.74;96446.75;1831731;78;21000;-69
2022/12/31 01:14:05;;;;;;;30.67;20.00;;;;;;;0.39;92.95;96445.48;1831688;78;20985;-68
2022/12/31 01:16:43;;;;;;;27.37;16.32;;;;;;;0.36;92.97;96440.62;1831498;78;21008;-68
2022/12/31 01:19:14;;;;;;;29.57;18.87;;;;;;;0.35;93.07;96437.14;1831627;78;20964;-68
2022/12/31 01:21:43;;;;;;;30.87;19.93;;;;;;;0.37;93.16;96438.48;1830298;78;21043;-68
2022/12/31 01:24:11;;;;;;;32.33;20.53;;;;;;;0.37;93.14;96434.16;1831505;78;21071;-68
2022/12/31 01:26:38;;;;;;;28.87;19.33;;;;;;;0.39;92.96;96434.22;1831385;78;21079;-68
2022/12/31 01:29:06;;;;;;;29.07;19.13;;;;;;;0.35;92.89;96429.36;1831777;78;21031;-68
2022/12/31 01:31:34;;;;;;;21.87;14.73;;;;;;;0.31;92.44;96430.07;1831763;78;21111;-68
2022/12/31 01:34:01;;;;;;;19.80;11.90;;;;;;;0.29;92.15;96425.66;1833860;78;20980;-68
2022/12/31 01:36:31;;;;;;;23.53;15.70;;;;;;;0.31;92.69;96426.17;1835061;78;20996;-68
2022/12/31 01:39:00;;;;;;;30.10;19.20;;;;;;;0.30;92.62;96428.70;1835032;78;21006;-68
2022/12/31 01:41:34;;;;;;;26.10;16.80;;;;;;;0.30;92.77;96425.69;1835170;78;21104;-68
2022/12/31 01:44:28;;;;;;;;;;;;;;;0.33;92.65;96430.13;1837931;78;20979;-68
2022/12/31 01:47:01;;;;;;;31.48;18.77;;;;;;;0.26;92.05;96422.96;1834923;78;20121;-68
2022/12/31 01:49:45;;;;;;;28.83;17.97;;;;;;;0.17;92.52;96424.81;1835244;78;21454;-68
2022/12/31 01:52:22;;;;;;;29.17;17.97;;;;;;;0.19;92.82;96429.22;1834906;78;21055;-68
2022/12/31 01:55:14;;;;;;;25.93;17.57;;;;;;;0.23;93.23;96424.13;1835125;78;21018;-68
2022/12/31 01:57:44;;;;;;;31.33;19.13;;;;;;;0.24;93.02;96428.09;1834802;78;21031;-68
2022/12/31 02:00:11;;;;;;;27.97;18.20;;;;;;;0.25;92.84;96429.84;1835035;78;20991;-68
2022/12/31 02:02:38;;;;;;;28.67;18.87;;;;;;;0.24;92.91;96431.11;1835097;78;21481;-68
2022/12/31 02:05:19;;;;;;;32.83;18.53;;;;;;;0.27;93.28;96429.91;1835654;78;21422;-68
2022/12/31 02:07:47;;;;;;;30.37;19.53;;;;;;;0.29;93.01;96425.66;1828190;78;21011;-68
2022/12/31 02:10:14;;;;;;;36.33;20.60;;;;;;;0.30;93.22;96433.90;1834797;78;21010;-68
2022/12/31 02:12:40;;;;;;;31.93;20.30;;;;;;;0.30;93.14;96424.39;1835218;78;21004;-68
2022/12/31 02:15:08;;;;;;;32.50;20.20;;;;;;;0.34;93.46;96440.55;1835011;78;21026;-68
2022/12/31 02:18:00;;;;;;;32.50;20.67;;;;;;;0.38;93.37;96435.94;1835162;78;21544;-68
2022/12/31 02:21:10;;;;;;;36.63;22.47;;;;;;;0.42;93.30;96433.90;1834659;78;21007;-69
2022/12/31 02:24:16;;;;;;;29.43;19.60;;;;;;;0.50;93.52;96430.69;1814478;78;21016;-68
2022/12/31 02:27:06;;;;;;;34.93;20.67;;;;;;;0.52;92.99;96434.22;1835069;78;21040;-68
2022/12/31 02:30:07;;;;;;;35.50;20.57;;;;;;;0.55;93.25;96431.72;1835226;78;21450;-68
2022/12/31 02:33:00;;;;;;;29.87;18.83;;;;;;;0.62;93.50;96429.38;1827266;78;21438;-68
2022/12/31 02:35:48;;;;;;;28.15;17.12;;;;;;;0.68;93.27;96430.02;1823493;78;21019;-68
2022/12/31 02:38:31;;;;;;;22.10;14.03;;;;;;;0.70;93.20;96424.43;1831714;78;21485;-68
2022/12/31 02:40:59;;;;;;;27.77;18.57;;;;;;;0.74;93.15;96426.31;1832014;78;21003;-68
2022/12/31 02:43:25;;;;;;;30.00;18.27;;;;;;;0.80;93.30;96433.41;1831594;78;21009;-68
2022/12/31 02:46:13;;;;;;;28.10;18.63;;;;;;;0.83;93.26;96438.30;1831382;78;21099;-68
2022/12/31 02:48:54;;;;;;;29.10;18.30;;;;;;;0.83;92.95;96427.91;1829781;78;20972;-68
2022/12/31 02:51:47;;;;;;;32.07;19.53;;;;;;;0.81;92.67;96437.37;1830592;78;20976;-68
2022/12/31 02:54:37;;;;;;;29.32;18.30;;;;;;;0.87;93.08;96439.27;1831381;78;21003;-68
2022/12/31 02:57:31;;;;;;;34.47;20.23;;;;;;;0.90;92.93;96433.30;1831691;78;21122;-68
2022/12/31 03:02:53;;;;;;;31.30;18.60;;;;;;;0.93;92.78;96441.18;1831731;78;21431;-69
2022/12/31 03:05:24;;;;;;;31.37;19.87;;;;;;;0.90;92.53;96434.59;1831528;78;21016;-68
2022/12/31 03:07:51;;;;;;;30.13;16.80;;;;;;;0.91;92.69;96441.54;1831506;78;21462;-69
2022/12/31 03:10:18;;;;;;;31.53;19.30;;;;;;;0.94;92.83;96437.77;1826715;78;21067;-68
2022/12/31 03:12:45;;;;;;;27.87;18.13;;;;;;;0.92;93.02;96432.93;1831508;78;21028;-68
2022/12/31 03:15:23;;;;;;;31.73;20.13;;;;;;;0.96;93.26;96434.38;1831291;78;21068;-68
2022/12/31 03:18:10;;;;;;;30.93;18.60;;;;;;;0.99;93.27;96427.98;1831717;78;20955;-68
2022/12/31 03:23:37;;;;;;;30.70;18.53;;;;;;;1.05;92.96;96430.75;1831409;78;20984;-68
2022/12/31 03:26:09;;;;;;;28.97;19.03;;;;;;;1.07;93.10;96438.19;1831786;78;21102;-68
2022/12/31 03:28:39;;;;;;;27.43;18.40;;;;;;;1.11;93.24;96435.28;1831894;78;21040;-68
2022/12/31 03:31:06;;;;;;;41.23;25.17;;;;;;;1.12;93.25;96434.44;1830482;78;21165;-68
2022/12/31 03:33:39;;;;;;;36.70;23.60;;;;;;;1.10;93.10;96438.70;1831429;78;21070;-68
2022/12/31 03:36:10;;;;;;;41.65;25.68;;;;;;;1.07;93.09;96432.99;1831567;78;21054;-68
2022/12/31 03:38:37;;;;;;;39.90;24.27;;;;;;;1.12;93.22;96439.64;1831623;78;21521;-68
2022/12/31 03:41:04;;;;;;;36.10;23.43;;;;;;;1.17;93.52;96437.19;1831264;78;21023;-68
2022/12/31 03:43:30;;;;;;;37.67;23.70;;;;;;;1.22;93.33;96440.81;1831688;78;20983;-68
2022/12/31 03:45:58;;;;;;;43.43;26.40;;;;;;;1.24;93.31;96437.84;1831516;78;21507;-68
2022/12/31 03:48:26;;;;;;;44.83;27.70;;;;;;;1.25;93.31;96438.30;1831819;78;20999;-68
2022/12/31 03:50:52;;;;;;;47.63;28.67;;;;;;;1.28;93.10;96440.56;1831917;78;20987;-68
2022/12/31 03:53:19;;;;;;;48.53;28.63;;;;;;;1.33;93.34;96439.83;1831679;78;21430;-68
2022/12/31 03:55:52;;;;;;;44.27;27.27;;;;;;;1.35;93.12;96443.37;1831572;78;21000;-68
2022/12/31 03:58:20;;;;;;;39.60;26.05;;;;;;;1.38;93.30;96442.16;1831241;78;20988;-68
2022/12/31 04:00:46;;;;;;;58.03;33.33;;;;;;;1.39;92.94;96450.44;1831766;78;21019;-68
2022/12/31 04:03:13;;;;;;;44.10;28.43;;;;;;;1.37;92.83;96446.48;1831725;78;21087;-68
2022/12/31 04:05:40;;;;;;;52.53;30.73;;;;;;;1.39;92.86;96446.11;1831432;78;21035;-68
2022/12/31 04:08:06;;;;;;;54.50;32.13;;;;;;;1.37;92.78;96454.28;1831162;78;20984;-68
2022/12/31 04:10:33;;;;;;;57.07;33.07;;;;;;;1.36;92.76;96449.02;1831831;78;20999;-68
2022/12/31 04:13:03;;;;;;;46.20;27.13;;;;;;;1.37;93.00;96459.48;1831528;78;21498;-68
2022/12/31 04:15:27;;;;;;;71.73;36.30;;;;;;;1.41;93.16;96450.95;1831287;78;21003;-68
2022/12/31 04:17:54;;;;;;;61.10;34.77;;;;;;;1.44;93.09;96452.34;1831709;78;21523;-68
2022/12/31 04:20:21;;;;;;;103.17;52.57;;;;;;;1.45;93.14;96457.11;1831743;78;20960;-68
2022/12/31 04:22:48;;;;;;;95.57;49.40;;;;;;;1.46;93.04;96448.07;1831559;78;20960;-68
2022/12/31 04:25:15;;;;;;;46.10;25.83;;;;;;;1.49;93.23;96460.28;1831640;78;21557;-68
2022/12/31 04:27:46;;;;;;;62.70;30.13;;;;;;;1.53;93.14;96456.91;1831894;78;20971;-68
2022/12/31 04:30:12;;;;;;;57.57;28.77;;;;;;;1.54;93.50;96455.19;1830412;78;21067;-68
2022/12/31 04:32:39;;;;;;;105.27;47.40;;;;;;;1.56;93.43;96453.09;1831821;78;20970;-68
2022/12/31 04:35:08;;;;;;;57.90;28.00;;;;;;;1.53;93.39;96459.95;1831624;78;20992;-68
2022/12/31 04:37:35;;;;;;;52.43;28.80;;;;;;;1.50;93.40;96455.11;1831738;78;20968;-68
2022/12/31 04:40:01;;;;;;;36.13;21.93;;;;;;;1.50;93.59;96461.61;1831926;78;20967;-68
2022/12/31 04:42:28;;;;;;;38.37;21.93;;;;;;;1.48;93.34;96458.50;1831724;78;20972;-68
2022/12/31 04:44:54;;;;;;;30.20;18.70;;;;;;;1.51;93.55;96466.39;1831806;78;21509;-68
2022/12/31 04:47:20;;;;;;;33.57;20.70;;;;;;;1.50;93.14;96468.53;1831696;78;21052;-68
2022/12/31 04:49:47;;;;;;;13.93;8.13;;;;;;;1.49;93.39;96470.27;1831879;78;20979;-68
2022/12/31 04:52:13;;;;;;;13.97;8.13;;;;;;;1.48;93.25;96463.70;1831261;78;21014;-68
2022/12/31 04:54:40;;;;;;;26.73;12.77;;;;;;;1.47;93.55;96466.73;1831662;78;21003;-68
2022/12/31 04:57:06;;;;;;;29.97;16.53;;;;;;;1.42;93.58;96462.23;1831748;78;20968;-68
2022/12/31 04:59:33;;;;;;;44.67;22.20;;;;;;;1.35;93.16;96462.44;1831343;78;21054;-68
2022/12/31 05:01:59;;;;;;;27.90;13.97;;;;;;;1.34;93.28;96461.99;1831535;78;20999;-68
2022/12/31 05:04:26;;;;;;;16.23;9.40;;;;;;;1.31;93.14;96464.50;1831366;78;20976;-68
2022/12/31 05:06:53;;;;;;;10.23;6.17;;;;;;;1.32;93.53;96466.68;1831511;78;21525;-68
2022/12/31 05:09:20;;;;;;;20.80;13.07;;;;;;;1.31;93.53;96472.30;1831795;78;20996;-68
2022/12/31 05:11:47;;;;;;;28.47;15.87;;;;;;;1.29;94.38;96465.75;1831634;78;21003;-68
2022/12/31 05:14:13;;;;;;;23.70;14.37;;;;;;;1.24;93.75;96466.44;1831708;78;21020;-68
2022/12/31 05:16:39;;;;;;;21.80;13.57;;;;;;;1.23;93.59;96486.75;1831541;78;21038;-68
2022/12/31 05:19:08;;;;;;;44.13;23.00;;;;;;;1.19;93.28;96491.41;1831757;78;20963;-68
2022/12/31 05:21:35;;;;;;;114.60;53.57;;;;;;;1.13;93.10;96488.17;1831750;78;21027;-68
2022/12/31 05:24:02;;;;;;;104.53;47.83;;;;;;;1.14;93.30;96486.06;1831514;78;20980;-68
2022/12/31 05:26:28;;;;;;;44.50;22.50;;;;;;;1.18;93.74;96477.50;1831471;78;21047;-68
2022/12/31 05:28:55;;;;;;;59.17;28.80;;;;;;;1.23;94.04;96456.44;1831883;78;20987;-68
2022/12/31 05:31:22;;;;;;;76.70;36.97;;;;;;;1.29;94.07;96462.27;1831540;78;21007;-68
2022/12/31 05:33:48;;;;;;;51.90;26.03;;;;;;;1.30;94.01;96460.12;1831537;78;21015;-68
2022/12/31 05:36:15;;;;;;;10.00;5.50;;;;;;;1.28;93.70;96448.36;1831728;78;20983;-68
2022/12/31 05:38:42;;;;;;;14.33;7.00;;;;;;;1.25;93.63;96456.50;1831525;78;21465;-68
2022/12/31 05:41:10;;;;;;;8.23;5.20;;;;;;;1.26;94.00;96460.84;1831556;78;21019;-68
2022/12/31 05:43:37;;;;;;;10.60;6.60;;;;;;;1.27;94.13;96450.94;1831587;78;21014;-68
2022/12/31 05:46:04;;;;;;;34.80;19.63;;;;;;;1.26;94.13;96446.55;1831561;78;20995;-68
2022/12/31 05:48:31;;;;;;;12.30;6.10;;;;;;;1.24;94.18;96454.32;1831652;78;20979;-68
2022/12/31 05:50:58;;;;;;;8.20;5.60;;;;;;;1.24;94.35;96457.34;1831638;78;20964;-68
2022/12/31 05:53:25;;;;;;;17.60;9.60;;;;;;;1.24;94.27;96464.72;1831603;78;20994;-68
2022/12/31 05:55:51;;;;;;;76.33;34.63;;;;;;;1.22;94.16;96463.78;1831701;78;21004;-69
2022/12/31 05:58:18;;;;;;;81.27;37.07;;;;;;;1.23;94.26;96467.26;1831412;78;21454;-68
2022/12/31 06:00:45;;;;;;;121.23;57.07;;;;;;;1.18;95.17;96480.11;1831325;78;21011;-68
2022/12/31 06:03:12;;;;;;;130.47;73.70;;;;;;;1.14;94.45;96483.46;1831546;78;21004;-68
2022/12/31 06:05:43;;;;;;;145.67;72.83;;;;;;;1.07;94.46;96486.70;1831595;78;21000;-68
2022/12/31 06:08:11;;;;;;;147.57;75.47;;;;;;;1.04;94.85;96490.08;1831573;78;21509;-68
2022/12/31 06:10:39;;;;;;;122.77;66.17;;;;;;;1.02;94.58;96488.27;1831760;78;21557;-68
2022/12/31 06:13:06;;;;;;;125.67;67.83;;;;;;;0.96;94.25;96490.25;1831570;78;21050;-68
2022/12/31 06:15:39;;;;;;;116.33;61.87;;;;;;;0.94;94.39;96488.44;1831566;78;21008;-68
2022/12/31 06:18:06;;;;;;;76.67;43.03;;;;;;;0.94;94.59;96493.20;1831773;78;21039;-68
2022/12/31 06:20:35;;;;;;;82.00;42.50;;;;;;;0.94;94.64;96493.20;1831491;78;20983;-68
2022/12/31 06:23:02;;;;;;;74.80;41.53;;;;;;;0.93;94.54;96495.75;1831478;78;21011;-68
2022/12/31 06:25:29;;;;;;;73.27;42.73;;;;;;;0.96;94.69;96499.34;1831519;78;21010;-68
2022/12/31 06:27:55;;;;;;;66.50;38.53;;;;;;;0.95;94.34;96495.39;1831385;78;21110;-68
2022/12/31 06:30:22;;;;;;;46.37;26.27;;;;;;;0.97;94.36;96497.20;1831700;78;21007;-68
2022/12/31 06:32:48;;;;;;;62.03;33.47;;;;;;;1.04;94.64;96500.47;1831583;78;21028;-68
2022/12/31 06:35:17;;;;;;;53.57;30.93;;;;;;;1.05;94.58;96502.22;1833805;78;21023;-68
2022/12/31 06:37:43;;;;;;;61.57;34.60;;;;;;;1.12;94.75;96499.84;1834905;78;21046;-68
2022/12/31 06:40:11;;;;;;;65.60;39.00;;;;;;;1.14;94.93;96507.28;1835136;78;20968;-68
2022/12/31 06:42:37;;;;;;;149.23;74.70;;;;;;;1.15;94.81;96501.23;1835131;78;20979;-68
2022/12/31 06:45:06;;;;;;;129.17;68.83;;;;;;;1.14;95.35;96508.16;1835098;78;20980;-68
2022/12/31 06:47:32;;;;;;;134.57;72.97;;;;;;;1.15;95.19;96512.51;1834999;78;20975;-68
2022/12/31 06:49:59;;;;;;;145.20;74.57;;;;;;;1.16;95.20;96507.80;1835178;78;20983;-68
2022/12/31 06:52:25;;;;;;;154.40;81.83;;;;;;;1.18;95.03;96511.30;1835021;78;21489;-69
2022/12/31 06:54:52;;;;;;;152.97;80.07;;;;;;;1.18;94.96;96512.59;1834934;78;20956;-68
2022/12/31 06:57:19;;;;;;;115.50;59.73;;;;;;;1.18;94.71;96525.59;1835139;78;20980;-68
2022/12/31 06:59:46;;;;;;;112.93;63.50;;;;;;;1.21;95.44;96517.92;1835055;78;21513;-68
2022/12/31 07:02:42;;;;;;;104.70;61.23;;;;;;;1.30;95.61;96519.92;1834833;78;20963;-68
2022/12/31 07:05:33;;;;;;;323.97;158.27;;;;;;;1.36;95.89;96521.83;1835303;78;20976;-68
2022/12/31 07:08:10;;;;;;;106.23;58.40;;;;;;;1.36;95.37;96539.63;1834935;78;21007;-68
2022/12/31 07:11:22;;;;;;;117.07;64.13;;;;;;;1.42;96.10;96537.22;1835200;78;20964;-68
2022/12/31 07:14:16;;;;;;;78.60;44.23;;;;;;;1.51;95.65;96537.91;1835280;78;21004;-68
2022/12/31 07:17:09;;;;;;;104.93;61.63;;;;;;;1.68;96.29;96521.11;1835121;78;21018;-68
2022/12/31 07:19:41;;;;;;;97.17;59.38;;;;;;;1.82;96.81;96525.87;1835426;78;21047;-68
2022/12/31 07:22:14;;;;;;;89.17;52.47;;;;;;;1.92;96.55;96531.81;1835192;78;21481;-68
2022/12/31 07:24:43;;;;;;;89.70;54.58;;;;;;;1.97;96.41;96533.25;1835233;78;20956;-68
2022/12/31 07:27:24;;;;;;;113.97;65.73;;;;;;;1.97;96.00;96528.92;1834846;78;21026;-68
2022/12/31 07:30:05;;;;;;;107.37;62.60;;;;;;;2.00;95.66;96535.94;1834840;78;21007;-68
2022/12/31 07:33:01;;;;;;;83.67;52.60;;;;;;;2.06;95.98;96543.92;1835209;78;21009;-68
2022/12/31 07:36:08;;;;;;;82.80;52.53;;;;;;;2.11;96.05;96540.60;1838409;78;21055;-68
2022/12/31 07:39:01;;;;;;;111.47;71.17;;;;;;;2.25;96.55;96530.60;1840796;78;20968;-68
2022/12/31 07:41:38;;;;;;;75.52;47.80;;;;;;;2.50;97.20;96546.50;1840614;78;21083;-68
2022/12/31 07:44:34;;;;;;;113.50;69.37;;;;;;;2.62;97.39;96539.84;1783370;78;21281;-68
2022/12/31 07:47:04;;;;;;;159.57;89.13;;;;;;;2.67;96.80;96537.86;1840796;78;21042;-69
2022/12/31 07:49:33;;;;;;;217.30;120.53;;;;;;;2.75;96.37;96535.45;1840777;78;20967;-68
2022/12/31 07:52:01;;;;;;;270.13;145.00;;;;;;;2.80;96.50;96540.37;1840425;78;20985;-68
2022/12/31 07:54:27;;;;;;;254.97;137.40;;;;;;;2.86;96.80;96534.42;1840802;78;21031;-68
2022/12/31 07:56:54;;;;;;;231.90;121.80;;;;;;;2.91;96.51;96538.91;1840572;78;21473;-69
2022/12/31 07:59:59;;;;;;;219.53;117.60;;;;;;;2.94;96.65;96540.72;1840854;78;21042;-69
2022/12/31 08:02:43;;;;;;;177.68;100.18;;;;;;;2.97;96.74;96547.30;1841209;78;21003;-68
2022/12/31 08:05:50;;;;;;;157.07;91.87;;;;;;;3.14;96.85;96556.45;1840776;78;21517;-68
2022/12/31 08:08:44;;;;;;;146.93;81.47;;;;;;;3.30;96.72;96554.22;1840369;78;21019;-69
2022/12/31 08:11:32;;;;;;;147.15;82.57;;;;;;;3.49;97.52;96562.09;1840863;78;21007;-69
2022/12/31 08:14:03;;;;;;;102.17;58.93;;;;;;;3.66;97.48;96557.73;1840818;78;20975;-68
2022/12/31 08:16:30;;;;;;;116.43;68.90;;;;;;;3.86;97.40;96546.45;1840587;78;21509;-68
2022/12/31 08:18:57;;;;;;;93.87;55.23;;;;;;;4.11;98.22;96558.32;1840714;78;21019;-68
2022/12/31 08:21:48;;;;;;;141.00;81.50;;;;;;;4.31;98.53;96558.75;1840715;78;21051;-68
2022/12/31 08:24:42;;;;;;;144.40;86.50;;;;;;;4.45;98.04;96569.48;1840898;78;20952;-68
2022/12/31 08:27:40;;;;;;;127.97;72.80;;;;;;;4.59;97.68;96564.98;1805349;78;21064;-68
2022/12/31 08:30:18;;;;;;;116.57;71.53;;;;;;;4.71;97.29;96572.64;1840875;78;21466;-68
2022/12/31 08:33:11;;;;;;;153.90;84.63;;;;;;;4.83;97.62;96572.41;1840635;78;20979;-68
2022/12/31 08:35:52;;;;;;;24.57;16.12;;;;;;;5.11;98.27;96568.57;1835381;78;21533;-68
2022/12/31 08:38:30;;;;;;;42.10;27.20;;;;;;;5.38;98.18;96569.49;1830032;78;21087;-69
2022/12/31 08:41:32;;;;;;;12.90;8.20;;;;;;;5.63;98.23;96561.19;1831246;78;21494;-68
2022/12/31 08:44:30;;;;;;;10.40;6.57;;;;;;;5.97;96.43;96568.71;1831757;78;21000;-69
2022/12/31 08:47:03;;;;;;;20.30;15.57;;;;;;;6.32;96.88;96567.90;1827747;78;21083;-68
2022/12/31 08:49:33;;;;;;;10.47;7.77;;;;;;;6.80;94.33;96558.02;1831564;78;21047;-69
2022/12/31 08:52:02;;;;;;;7.10;5.17;;;;;;;7.04;94.25;96566.60;1831668;78;21461;-68
2022/12/31 08:54:29;;;;;;;7.67;5.17;;;;;;;7.23;93.69;96570.28;1831332;78;21525;-68
2022/12/31 08:57:18;;;;;;;17.90;14.33;;;;;;;7.43;91.91;96570.03;1831587;78;20988;-68
2022/12/31 09:00:10;;;;;;;15.47;8.97;;;;;;;7.54;92.79;96570.16;1826432;78;20996;-68
2022/12/31 09:03:09;;;;;;;22.63;14.87;;;;;;;7.69;90.22;96566.34;1830116;78;21051;-68
2022/12/31 09:06:19;;;;;;;6.30;3.80;;;;;;;7.80;91.23;96558.54;1831691;78;21504;-68
2022/12/31 09:08:57;;;;;;;5.87;4.60;;;;;;;7.86;88.51;96559.92;1831520;78;21039;-68
2022/12/31 09:11:55;;;;;;;22.40;12.13;;;;;;;7.98;89.41;96548.59;1831438;78;21048;-68
2022/12/31 09:14:59;;;;;;;9.55;5.50;;;;;;;8.02;89.84;96539.88;1831271;78;21011;-68
2022/12/31 09:17:44;;;;;;;9.63;7.08;;;;;;;8.01;89.76;96537.69;1831851;78;20961;-68
2022/12/31 09:20:23;;;;;;;10.37;6.97;;;;;;;8.02;89.78;96544.69;1831514;78;21091;-68
2022/12/31 09:22:51;;;;;;;9.13;5.50;;;;;;;8.09;88.61;96539.05;1831209;78;21076;-68
2022/12/31 09:25:20;;;;;;;4.40;3.00;;;;;;;8.17;86.72;96543.91;1831662;78;21000;-68
2022/12/31 09:28:18;;;;;;;5.85;3.17;;;;;;;8.27;85.83;96542.22;1831762;78;21003;-68
2022/12/31 09:30:50;;;;;;;4.58;3.85;;;;;;;8.48;86.53;96544.55;1798259;78;21094;-68
2022/12/31 09:33:31;;;;;;;6.15;4.78;;;;;;;8.54;86.14;96532.31;1830022;78;21012;-68
2022/12/31 09:36:05;;;;;;;3.67;3.30;;;;;;;8.63;84.02;96520.93;1833603;78;21008;-68
2022/12/31 09:39:04;;;;;;;3.12;2.83;;;;;;;8.69;83.33;96527.52;1834779;78;21066;-68
2022/12/31 09:41:42;;;;;;;10.50;7.08;;;;;;;8.78;82.09;96520.11;1834820;78;21035;-68
2022/12/31 09:45:02;;;;;;;3.33;2.72;;;;;;;8.82;83.01;96525.80;1834193;78;20980;-68
2022/12/31 09:47:44;;;;;;;4.10;3.47;;;;;;;8.86;82.33;96519.69;1770353;81;21025;-68
2022/12/31 09:50:37;;;;;;;11.30;7.60;;;;;;;8.93;82.55;96532.00;1770213;81;21013;-68
2022/12/31 09:53:18;;;;;;;14.15;11.28;;;;;;;8.97;82.41;96533.78;1756378;81;21030;-68
2022/12/31 09:55:50;;;;;;;5.85;3.30;;;;;;;8.99;82.73;96535.95;1739744;81;21646;-68
2022/12/31 09:58:39;;;;;;;4.72;3.15;;;;;;;9.07;82.47;96531.61;1767933;81;21034;-68
2022/12/31 10:01:34;;;;;;;6.70;5.47;;;;;;;9.05;79.64;96537.30;1768057;81;21046;-68
2022/12/31 10:05:01;;;;;;;9.50;6.62;;;;;;;9.14;80.11;96535.55;1767734;81;21019;-69
2022/12/31 10:08:15;;;;;;;6.90;4.78;;;;;;;9.25;81.22;96534.70;1767940;81;21014;-68
2022/12/31 10:10:58;;;;;;;11.05;8.93;;;;;;;9.29;78.52;96513.20;1767874;81;21481;-68
2022/12/31 10:13:47;;;;;;;19.45;13.60;;;;;;;9.34;79.51;96517.16;1750327;81;21022;-69
2022/12/31 10:17:12;;;;;;;55.78;36.50;;;;;;;9.38;80.23;96520.24;1795581;80;20975;-68
2022/12/31 10:20:07;;;;;;;16.85;11.15;;;;;;;9.41;79.94;96518.92;1729153;83;21012;-68
2022/12/31 10:23:00;;;;;;;21.62;16.60;;;;;;;9.47;79.92;96504.42;1708937;83;21020;-68
2022/12/31 10:25:41;;;;;;;35.85;24.72;;;;;;;9.75;78.71;96498.28;1784781;80;21528;-68
2022/12/31 10:28:30;;;;;;;16.35;12.13;;;;;;;10.08;79.87;96496.89;1795384;80;21089;-69
2022/12/31 10:31:17;;;;;;;13.40;9.95;;;;;;;10.13;79.98;96499.98;1795820;80;21038;-68
2022/12/31 10:34:12;;;;;;;24.50;14.18;;;;;;;10.17;80.45;96507.43;1795134;80;21077;-68
2022/12/31 10:37:11;;;;;;;14.80;9.88;;;;;;;10.10;80.60;96483.27;1795374;80;21493;-68
2022/12/31 10:39:49;;;;;;;27.87;15.60;;;;;;;10.09;80.63;96485.48;1795185;80;21033;-68
2022/12/31 10:42:33;;;;;;;13.65;8.60;;;;;;;10.12;79.85;96477.11;1795015;80;21575;-68
2022/12/31 10:45:21;;;;;;;7.60;4.97;;;;;;;10.23;80.75;96474.88;1795229;80;21061;-68
2022/12/31 10:48:30;;;;;;;6.35;4.12;;;;;;;10.33;81.10;96466.08;1795468;80;21528;-68
2022/12/31 10:51:05;;;;;;;5.78;2.95;;;;;;;10.40;78.35;96466.05;1795065;80;21070;-68
2022/12/31 10:54:10;;;;;;;16.80;13.98;;;;;;;10.44;76.92;96466.06;1791246;80;21002;-68
2022/12/31 10:57:07;;;;;;;7.40;5.80;;;;;;;10.48;77.98;96456.82;1795216;80;21537;-69
2022/12/31 11:00:01;;;;;;;13.50;5.80;;;;;;;10.45;78.63;96459.45;1795214;80;20983;-69
2022/12/31 11:03:07;;;;;;;9.48;5.03;;;;;;;10.48;79.23;96460.78;1795688;80;21076;-68
2022/12/31 11:05:47;;;;;;;11.03;6.90;;;;;;;10.39;79.29;96462.13;1795700;80;20987;-68
2022/12/31 11:08:46;;;;;;;7.75;4.47;;;;;;;10.37;77.81;96468.71;1795228;80;21007;-68
2022/12/31 11:11:45;;;;;;;6.92;4.10;;;;;;;10.43;76.56;96455.93;1795694;80;20977;-68
2022/12/31 11:14:55;;;;;;;15.15;7.67;;;;;;;10.46;73.33;96442.75;1795466;80;21123;-68
2022/12/31 11:17:49;;;;;;;11.12;8.23;;;;;;;10.49;74.41;96444.05;1795793;80;20995;-68
2022/12/31 11:20:41;;;;;;;14.03;10.25;;;;;;;10.54;74.01;96445.35;1795538;80;21083;-67
2022/12/31 11:23:37;;;;;;;6.65;4.85;;;;;;;10.54;72.07;96444.03;1795647;80;21002;-68
2022/12/31 11:26:36;;;;;;;6.28;4.37;;;;;;;10.59;72.50;96448.84;1795362;80;21476;-69
2022/12/31 11:29:35;;;;;;;10.23;5.67;;;;;;;10.67;70.73;96454.08;1795392;80;20995;-68
2022/12/31 11:32:24;;;;;;;8.33;4.78;;;;;;;10.71;71.66;96447.47;1795511;80;21003;-68
2022/12/31 11:35:13;;;;;;;9.55;5.53;;;;;;;10.77;70.07;96444.78;1795623;80;20995;-68
2022/12/31 11:37:48;;;;;;;4.92;2.37;;;;;;;10.93;69.63;96443.36;1795475;80;21074;-68
2022/12/31 11:40:41;;;;;;;10.88;5.62;;;;;;;11.45;68.62;96430.64;1795467;80;21555;-69
2022/12/31 11:43:16;;;;;;;18.35;10.25;;;;;;;11.88;71.47;96426.30;1764820;80;21522;-69
2022/12/31 11:46:05;;;;;;;3.40;2.45;;;;;;;12.53;70.64;96429.08;1795297;80;21031;-68
2022/12/31 11:48:49;;;;;;;2.92;2.25;;;;;;;12.95;68.43;96429.40;1795260;80;21050;-69
2022/12/31 11:51:43;;;;;;;;;;;;;;;13.10;61.69;96434.92;1798194;80;21324;-69
2022/12/31 11:54:39;;;;;;;3.72;2.50;;;;;;;13.50;66.66;96444.91;1733958;81;20102;-67
2022/12/31 11:57:33;;;;;;;5.08;3.25;;;;;;;13.80;64.80;96435.55;1762931;81;21539;-67
2022/12/31 12:00:15;;;;;;;5.50;3.00;;;;;;;14.11;61.81;96450.03;1795814;80;20977;-67
2022/12/31 12:02:45;;;;;;;;;;;;;;;14.21;63.51;96459.14;1767869;80;21026;-67
2022/12/31 12:05:16;;;;;;;3.92;2.40;;;;;;;14.05;58.40;96464.30;1793414;80;20092;-67
2022/12/31 12:07:43;;;;;;;7.62;3.00;;;;;;;14.17;60.92;96472.50;1795140;80;21056;-67
2022/12/31 12:10:21;;;;;;;4.28;1.87;;;;;;;14.19;58.84;96461.41;1795156;80;21036;-67
2022/12/31 12:12:48;;;;;;;3.27;2.17;;;;;;;14.30;60.02;96466.05;1792048;80;20982;-67
2022/12/31 12:15:32;;;;;;;3.58;1.92;;;;;;;14.41;60.25;96457.86;1795627;80;21009;-67
2022/12/31 12:18:01;;;;;;;;;;;;;;;14.73;60.06;96469.20;1797784;80;21024;-67
2022/12/31 12:20:35;;;;;;;5.00;2.90;;;;;;;14.67;56.60;96463.56;1795427;80;20378;-67